Time;durP1;ratioP1;P1;durP2;ratioP2;P2;SDS_P1;SDS_P2;PMS_P1;PMS_P2;Temp;Humidity;BMP_temperature;BMP_pressure;BME280_temperature;BME280_humidity;BME280_pressure;Samples;Min_cycle;Max_cycle;Signal;HPM_P1;HPM_P2
2024/03/01 00:02:07;;;;;;;3.13;2.10;;;9.90;92.20;;;;;;5048230;28;20040;-67
2024/03/01 00:04:32;;;;;;;3.58;2.15;;;9.90;91.90;;;;;;5050563;28;20032;-66
2024/03/01 00:06:58;;;;;;;2.17;1.92;;;9.80;91.90;;;;;;5047957;28;20021;-66
2024/03/01 00:09:23;;;;;;;3.88;2.58;;;9.90;91.70;;;;;;5048973;28;20059;-65
2024/03/01 00:11:49;;;;;;;3.58;2.33;;;9.80;91.50;;;;;;5046413;28;20025;-64
2024/03/01 00:14:14;;;;;;;3.95;2.10;;;9.90;91.60;;;;;;5043876;28;20036;-65
2024/03/01 00:16:40;;;;;;;3.78;2.20;;;9.90;91.20;;;;;;5050176;28;20087;-63
2024/03/01 00:19:05;;;;;;;5.43;3.25;;;9.90;91.20;;;;;;5049745;28;20033;-64
2024/03/01 00:21:31;;;;;;;3.63;2.10;;;9.90;91.10;;;;;;5049600;28;20025;-64
2024/03/01 00:23:57;;;;;;;3.08;2.20;;;9.90;91.20;;;;;;5048771;28;20024;-65
2024/03/01 00:26:22;;;;;;;2.83;2.05;;;10.00;91.10;;;;;;5048964;28;20032;-64
2024/03/01 00:28:48;;;;;;;2.95;2.33;;;10.00;91.00;;;;;;5049123;28;20398;-65
2024/03/01 00:31:13;;;;;;;3.83;2.42;;;10.00;91.00;;;;;;5048735;28;20477;-66
2024/03/01 00:33:39;;;;;;;3.03;2.17;;;10.00;90.90;;;;;;5048578;28;20032;-67
2024/03/01 00:36:05;;;;;;;3.78;2.50;;;10.00;91.00;;;;;;5048268;28;20598;-65
2024/03/01 00:38:31;;;;;;;2.75;2.10;;;9.90;90.80;;;;;;5048379;28;20064;-66
2024/03/01 00:40:56;;;;;;;3.75;2.40;;;9.90;90.80;;;;;;5047963;28;20017;-65
2024/03/01 00:43:22;;;;;;;3.75;2.20;;;10.00;90.90;;;;;;5045668;28;20035;-67
2024/03/01 00:45:48;;;;;;;3.50;2.20;;;9.90;90.80;;;;;;5048088;28;20029;-63
2024/03/01 00:48:14;;;;;;;3.55;2.35;;;9.90;90.70;;;;;;5046967;28;20514;-65
2024/03/01 00:50:40;;;;;;;4.72;2.60;;;9.90;90.80;;;;;;5047113;28;20021;-63
2024/03/01 00:53:08;;;;;;;3.38;2.33;;;9.90;90.50;;;;;;5047580;28;20032;-65
2024/03/01 00:55:34;;;;;;;4.40;2.40;;;9.90;90.50;;;;;;5043082;28;20048;-66
2024/03/01 00:58:00;;;;;;;3.80;2.25;;;9.90;90.60;;;;;;5047657;28;20098;-65
2024/03/01 01:00:27;;;;;;;3.65;2.35;;;9.90;90.50;;;;;;5045545;28;20387;-64
2024/03/01 01:02:53;;;;;;;3.95;2.60;;;9.80;90.70;;;;;;5048774;28;20029;-65
2024/03/01 01:05:18;;;;;;;3.75;2.40;;;9.90;90.40;;;;;;5049495;28;20031;-66
2024/03/01 01:07:45;;;;;;;3.35;2.30;;;9.80;90.30;;;;;;5047799;28;20127;-65
2024/03/01 01:10:10;;;;;;;5.22;3.25;;;9.90;90.40;;;;;;5047622;28;20017;-65
2024/03/01 01:12:37;;;;;;;4.03;2.25;;;9.90;90.40;;;;;;5044265;28;20031;-65
2024/03/01 01:15:03;;;;;;;4.18;2.40;;;9.90;90.40;;;;;;5048855;28;20032;-65
2024/03/01 01:17:30;;;;;;;3.60;2.30;;;9.90;90.20;;;;;;5045379;28;20109;-64
2024/03/01 01:19:57;;;;;;;3.08;2.40;;;9.90;90.30;;;;;;5047500;28;20029;-64
2024/03/01 01:22:23;;;;;;;3.38;2.17;;;9.90;90.10;;;;;;5046876;28;20311;-65
2024/03/01 01:24:49;;;;;;;3.03;1.90;;;9.90;90.00;;;;;;5048324;28;20049;-64
2024/03/01 01:27:15;;;;;;;3.50;2.47;;;9.90;90.20;;;;;;5046856;28;20486;-65
2024/03/01 01:29:40;;;;;;;4.88;2.88;;;9.90;89.90;;;;;;5047486;28;20051;-65
2024/03/01 01:32:07;;;;;;;5.18;3.05;;;9.90;90.00;;;;;;5047915;28;20024;-65
2024/03/01 01:34:33;;;;;;;3.90;2.83;;;9.90;90.10;;;;;;5046272;28;20028;-65
2024/03/01 01:36:58;;;;;;;3.63;2.28;;;9.90;89.90;;;;;;5046111;28;20029;-65
2024/03/01 01:39:24;;;;;;;4.95;2.90;;;10.00;90.00;;;;;;5046500;28;20033;-64
2024/03/01 01:41:50;;;;;;;5.47;3.17;;;9.90;89.80;;;;;;5046678;28;20067;-65
2024/03/01 01:44:15;;;;;;;4.28;2.80;;;10.00;89.60;;;;;;5045030;28;20052;-66
2024/03/01 01:46:42;;;;;;;4.70;2.80;;;10.00;89.80;;;;;;5047637;28;20075;-66
2024/03/01 01:49:08;;;;;;;4.70;3.03;;;10.00;89.80;;;;;;5047535;28;20033;-66
2024/03/01 01:51:35;;;;;;;4.38;2.80;;;10.00;89.70;;;;;;5045335;28;20029;-66
2024/03/01 01:54:01;;;;;;;5.20;3.22;;;10.00;89.70;;;;;;5043496;28;20403;-67
2024/03/01 01:56:27;;;;;;;4.97;2.78;;;10.00;89.70;;;;;;5046340;28;20028;-66
2024/03/01 01:58:53;;;;;;;4.75;2.90;;;9.90;89.50;;;;;;5046395;28;20041;-67
2024/03/01 02:01:19;;;;;;;4.30;2.80;;;10.00;90.00;;;;;;5047553;28;20033;-67
2024/03/01 02:03:45;;;;;;;3.60;2.35;;;10.00;89.70;;;;;;5045814;28;20033;-64
2024/03/01 02:06:11;;;;;;;3.80;2.47;;;10.00;89.60;;;;;;5046081;28;20016;-66
2024/03/01 02:08:40;;;;;;;4.20;2.75;;;10.00;89.60;;;;;;5046039;28;20023;-65
2024/03/01 02:11:06;;;;;;;3.35;2.60;;;10.00;89.00;;;;;;5046099;28;20018;-64
2024/03/01 02:13:32;;;;;;;4.53;2.97;;;10.00;89.40;;;;;;5044752;28;20046;-65
2024/03/01 02:15:58;;;;;;;5.32;3.30;;;9.90;89.10;;;;;;5046602;28;20029;-65
2024/03/01 02:18:24;;;;;;;8.40;4.25;;;9.90;89.30;;;;;;5046288;28;20044;-64
2024/03/01 02:21:24;;;;;;;4.78;3.10;;;9.90;89.10;;;;;;5046590;28;20068;-64
2024/03/01 02:23:50;;;;;;;5.47;3.10;;;9.90;89.00;;;;;;5002673;28;20051;-65
2024/03/01 02:26:16;;;;;;;4.65;2.95;;;9.90;89.00;;;;;;5043713;28;20037;-64
2024/03/01 02:28:46;;;;;;;4.60;2.90;;;9.90;88.50;;;;;;5043640;28;20040;-64
2024/03/01 02:31:12;;;;;;;4.65;3.20;;;9.90;88.90;;;;;;5045929;28;20463;-65
2024/03/01 02:33:37;;;;;;;5.00;3.20;;;9.90;88.90;;;;;;5044282;28;20104;-64
2024/03/01 02:36:04;;;;;;;4.20;2.60;;;9.90;89.10;;;;;;5043930;28;20148;-63
2024/03/01 02:38:30;;;;;;;4.63;2.90;;;9.90;88.90;;;;;;5046385;28;20075;-64
2024/03/01 02:40:55;;;;;;;4.68;3.08;;;9.90;88.80;;;;;;5046451;28;20479;-63
2024/03/01 02:43:21;;;;;;;5.00;2.90;;;9.80;88.90;;;;;;5042097;28;20082;-61
2024/03/01 02:45:46;;;;;;;4.80;2.90;;;9.90;88.90;;;;;;5046140;28;20021;-64
2024/03/01 02:48:12;;;;;;;3.88;2.47;;;9.80;88.80;;;;;;5047599;28;20369;-65
2024/03/01 02:50:38;;;;;;;5.55;3.30;;;9.80;89.00;;;;;;5050240;28;20071;-65
2024/03/01 02:53:03;;;;;;;5.90;3.63;;;9.80;88.90;;;;;;5045380;28;20040;-65
2024/03/01 02:55:29;;;;;;;6.25;3.78;;;9.70;88.80;;;;;;5049201;28;20114;-64
2024/03/01 02:57:55;;;;;;;6.18;3.60;;;9.70;88.70;;;;;;5049336;28;20039;-65
2024/03/01 03:00:22;;;;;;;5.30;3.22;;;9.70;88.80;;;;;;5049981;28;20025;-65
2024/03/01 03:02:47;;;;;;;5.18;3.15;;;9.70;88.90;;;;;;5048829;28;20025;-65
2024/03/01 03:05:14;;;;;;;6.30;3.67;;;9.70;88.90;;;;;;5047059;28;20484;-65
2024/03/01 03:07:39;;;;;;;5.63;3.35;;;9.60;88.90;;;;;;5049633;28;20024;-64
2024/03/01 03:10:06;;;;;;;5.93;3.55;;;9.60;89.00;;;;;;5048886;28;20033;-66
2024/03/01 03:12:32;;;;;;;5.43;3.40;;;9.60;88.80;;;;;;5047132;28;20017;-65
2024/03/01 03:15:00;;;;;;;6.25;3.85;;;9.60;88.80;;;;;;5050103;28;20029;-64
2024/03/01 03:17:26;;;;;;;7.13;4.10;;;9.60;88.60;;;;;;5046756;28;20029;-64
2024/03/01 03:19:52;;;;;;;6.75;4.10;;;9.50;88.70;;;;;;5045919;28;20537;-66
2024/03/01 03:22:18;;;;;;;7.05;4.50;;;9.60;88.80;;;;;;5046670;28;20120;-65
2024/03/01 03:24:43;;;;;;;5.85;3.55;;;9.60;88.60;;;;;;5049449;28;20234;-66
2024/03/01 03:27:09;;;;;;;6.00;3.55;;;9.50;88.50;;;;;;5048868;28;20053;-65
2024/03/01 03:29:35;;;;;;;6.28;3.67;;;9.50;88.60;;;;;;5049020;28;20053;-66
2024/03/01 03:32:03;;;;;;;6.53;3.67;;;9.40;88.70;;;;;;5049051;28;20029;-65
2024/03/01 03:34:29;;;;;;;5.50;3.35;;;9.40;88.90;;;;;;5048379;28;20071;-65
2024/03/01 03:36:55;;;;;;;3.65;2.50;;;9.30;89.10;;;;;;5047227;28;20048;-64
2024/03/01 03:39:21;;;;;;;5.07;2.90;;;9.40;89.30;;;;;;5049651;28;20017;-64
2024/03/01 03:41:46;;;;;;;6.20;3.40;;;9.30;89.20;;;;;;5048780;28;20041;-64
2024/03/01 03:44:12;;;;;;;4.90;3.13;;;9.30;89.40;;;;;;5049161;28;20076;-65
2024/03/01 03:46:38;;;;;;;4.97;3.25;;;9.30;89.50;;;;;;5049542;28;20056;-63
2024/03/01 03:49:03;;;;;;;5.15;2.97;;;9.30;89.50;;;;;;5049545;28;20086;-63
2024/03/01 03:51:29;;;;;;;4.65;2.80;;;9.30;89.50;;;;;;5049737;28;20049;-66
2024/03/01 03:53:58;;;;;;;4.07;2.80;;;9.30;89.60;;;;;;5045764;28;20025;-63
2024/03/01 03:56:24;;;;;;;6.20;3.35;;;9.40;89.60;;;;;;5050648;28;20037;-64
2024/03/01 03:58:51;;;;;;;6.75;3.95;;;9.40;90.00;;;;;;5045608;28;20086;-67
2024/03/01 04:01:17;;;;;;;5.47;3.47;;;9.30;89.60;;;;;;5045132;28;20029;-65
2024/03/01 04:03:42;;;;;;;4.47;2.90;;;9.20;89.70;;;;;;5044632;28;20029;-66
2024/03/01 04:06:08;;;;;;;4.70;2.70;;;9.30;90.00;;;;;;5047333;28;20021;-66
2024/03/01 04:08:38;;;;;;;5.75;3.53;;;9.20;90.00;;;;;;5049059;28;20049;-65
2024/03/01 04:11:05;;;;;;;5.25;3.38;;;9.20;90.00;;;;;;5049578;28;20025;-66
2024/03/01 04:13:35;;;;;;;4.68;2.92;;;9.30;90.00;;;;;;5048766;28;20439;-65
2024/03/01 04:16:02;;;;;;;5.80;3.58;;;9.40;90.00;;;;;;5046325;28;20025;-65
2024/03/01 04:18:28;;;;;;;7.35;4.68;;;9.40;89.90;;;;;;5048263;28;20128;-66
2024/03/01 04:20:55;;;;;;;5.88;3.63;;;9.40;89.90;;;;;;5048183;28;20037;-66
2024/03/01 04:23:21;;;;;;;7.60;4.05;;;9.40;90.00;;;;;;5047812;28;20024;-66
2024/03/01 04:25:51;;;;;;;8.57;5.07;;;9.50;90.00;;;;;;5049020;28;20017;-66
2024/03/01 04:28:17;;;;;;;8.95;5.20;;;9.40;90.00;;;;;;5043574;28;20024;-67
2024/03/01 04:30:43;;;;;;;8.93;4.88;;;9.40;90.10;;;;;;5047711;28;20021;-66
2024/03/01 04:33:09;;;;;;;6.75;4.13;;;9.40;90.20;;;;;;5047915;28;20074;-66
2024/03/01 04:35:34;;;;;;;6.07;4.00;;;9.50;90.30;;;;;;5048527;28;20369;-66
2024/03/01 04:38:00;;;;;;;4.07;2.90;;;9.50;90.40;;;;;;5048145;28;20062;-67
2024/03/01 04:40:25;;;;;;;3.35;2.25;;;9.50;90.50;;;;;;5047812;28;20036;-67
2024/03/01 04:42:52;;;;;;;3.03;2.15;;;9.60;90.50;;;;;;5046115;28;20112;-65
2024/03/01 04:45:18;;;;;;;2.08;1.58;;;9.60;90.60;;;;;;5048555;28;20053;-66
2024/03/01 04:47:44;;;;;;;2.72;2.13;;;9.60;90.70;;;;;;5048891;28;20104;-66
2024/03/01 04:50:10;;;;;;;2.00;1.40;;;9.60;90.80;;;;;;5045921;28;20451;-66
2024/03/01 04:52:36;;;;;;;1.77;1.40;;;9.60;90.80;;;;;;5046037;28;20316;-66
2024/03/01 04:55:01;;;;;;;1.63;1.27;;;9.60;91.00;;;;;;5048698;28;20017;-66
2024/03/01 04:57:27;;;;;;;1.55;1.30;;;9.60;91.00;;;;;;5047820;28;20395;-66
2024/03/01 04:59:54;;;;;;;1.40;1.20;;;9.60;91.10;;;;;;5048290;28;20125;-65
2024/03/01 05:02:20;;;;;;;1.13;1.10;;;9.60;91.10;;;;;;5047175;28;20511;-66
2024/03/01 05:04:45;;;;;;;1.65;1.33;;;9.70;91.20;;;;;;5046115;28;20212;-65
2024/03/01 05:07:11;;;;;;;1.30;1.20;;;9.60;91.30;;;;;;5047256;28;20024;-66
2024/03/01 05:09:38;;;;;;;1.65;1.48;;;9.50;91.30;;;;;;5048274;28;20075;-66
2024/03/01 05:12:04;;;;;;;2.85;1.45;;;9.50;91.40;;;;;;5049556;28;20012;-65
2024/03/01 05:14:30;;;;;;;0.98;0.98;;;9.40;91.50;;;;;;5047671;28;20028;-65
2024/03/01 05:16:56;;;;;;;1.10;1.00;;;9.40;91.60;;;;;;5041413;28;20075;-65
2024/03/01 05:19:21;;;;;;;0.90;0.80;;;9.40;91.60;;;;;;5047603;28;20033;-66
2024/03/01 05:21:48;;;;;;;0.80;0.80;;;9.40;91.60;;;;;;5048098;28;20051;-67
2024/03/01 05:24:14;;;;;;;1.00;0.80;;;9.30;91.70;;;;;;5039085;28;20036;-66
2024/03/01 05:26:39;;;;;;;1.23;0.88;;;9.30;91.80;;;;;;5045620;28;20468;-66
2024/03/01 05:29:05;;;;;;;0.85;0.70;;;9.30;91.80;;;;;;5047937;28;20043;-65
2024/03/01 05:31:47;;;;;;;1.33;1.23;;;9.20;92.20;;;;;;5047462;28;20017;-65
2024/03/01 05:34:14;;;;;;;1.02;0.93;;;9.20;92.20;;;;;;5043789;28;20025;-68
2024/03/01 05:36:40;;;;;;;1.42;1.10;;;9.20;91.90;;;;;;5045090;28;20051;-65
2024/03/01 05:39:16;;;;;;;1.10;1.00;;;9.20;92.00;;;;;;5047625;28;20029;-65
2024/03/01 05:41:43;;;;;;;1.20;1.10;;;9.20;92.00;;;;;;5046053;28;20352;-66
2024/03/01 05:44:08;;;;;;;1.95;0.90;;;9.00;91.90;;;;;;5047713;28;20060;-66
2024/03/01 05:46:34;;;;;;;1.05;0.82;;;8.90;92.00;;;;;;5045859;28;20472;-65
2024/03/01 05:49:00;;;;;;;0.75;0.75;;;8.90;92.00;;;;;;5045319;28;20037;-66
2024/03/01 05:51:25;;;;;;;0.80;0.80;;;8.80;92.10;;;;;;5046180;28;20597;-65
2024/03/01 05:53:51;;;;;;;0.80;0.80;;;8.70;92.10;;;;;;5046850;28;20021;-67
2024/03/01 05:56:17;;;;;;;0.70;0.70;;;8.70;92.20;;;;;;5046112;28;20060;-65
2024/03/01 05:58:42;;;;;;;1.10;0.90;;;8.60;92.20;;;;;;5046005;28;20029;-65
2024/03/01 06:01:08;;;;;;;0.70;0.70;;;8.60;92.20;;;;;;5041185;28;20521;-66
2024/03/01 06:03:34;;;;;;;1.10;0.82;;;8.50;92.20;;;;;;5044337;28;20029;-65
2024/03/01 06:06:00;;;;;;;0.80;0.80;;;8.50;92.20;;;;;;5045320;28;20027;-65
2024/03/01 06:08:26;;;;;;;1.33;1.10;;;8.40;92.30;;;;;;5046471;28;20075;-65
2024/03/01 06:10:52;;;;;;;4.25;0.90;;;8.40;92.30;;;;;;5044222;28;20021;-66
2024/03/01 06:13:17;;;;;;;1.50;0.88;;;8.40;92.40;;;;;;5046978;28;20107;-66
2024/03/01 06:15:43;;;;;;;1.00;0.80;;;8.50;92.60;;;;;;5046127;28;20349;-64
2024/03/01 06:18:09;;;;;;;1.23;0.85;;;8.50;92.30;;;;;;5043750;28;20032;-64
2024/03/01 06:20:35;;;;;;;0.82;0.68;;;8.50;92.30;;;;;;5046664;28;20039;-65
2024/03/01 06:23:01;;;;;;;1.88;0.90;;;8.60;92.30;;;;;;5048082;28;20119;-65
2024/03/01 06:25:26;;;;;;;0.77;0.73;;;8.50;92.20;;;;;;5048053;28;20124;-65
2024/03/01 06:27:52;;;;;;;0.82;0.73;;;8.50;92.20;;;;;;5041613;28;20033;-66
2024/03/01 06:30:18;;;;;;;1.25;1.15;;;8.60;92.20;;;;;;5048907;28;20106;-65
2024/03/01 06:32:43;;;;;;;1.23;0.93;;;8.50;92.10;;;;;;5049816;28;20356;-64
2024/03/01 06:35:09;;;;;;;1.27;0.90;;;8.50;92.10;;;;;;5051299;28;20454;-66
2024/03/01 06:37:35;;;;;;;1.35;0.90;;;8.50;92.10;;;;;;5050976;28;20029;-66
2024/03/01 06:40:05;;;;;;;1.00;0.90;;;8.50;92.10;;;;;;5051267;28;20032;-65
2024/03/01 06:42:30;;;;;;;0.90;0.90;;;8.50;92.40;;;;;;5050204;28;20112;-65
2024/03/01 06:44:56;;;;;;;1.52;0.80;;;8.50;92.10;;;;;;5051485;28;20099;-65
2024/03/01 06:47:21;;;;;;;0.80;0.80;;;8.60;92.20;;;;;;5045175;28;20025;-65
2024/03/01 06:49:47;;;;;;;1.00;0.80;;;8.60;92.20;;;;;;5040159;28;20025;-67
2024/03/01 06:52:13;;;;;;;1.42;1.05;;;8.60;92.20;;;;;;5048440;28;20021;-67
2024/03/01 06:54:38;;;;;;;0.90;0.90;;;8.70;92.20;;;;;;5045614;28;20099;-67
2024/03/01 06:57:04;;;;;;;0.95;0.90;;;8.70;92.10;;;;;;5050009;28;20048;-67
2024/03/01 06:59:30;;;;;;;1.60;0.98;;;8.80;92.10;;;;;;5048510;28;20067;-67
2024/03/01 07:01:56;;;;;;;1.50;0.90;;;8.80;92.10;;;;;;5046680;28;20036;-66
2024/03/01 07:04:21;;;;;;;1.08;0.98;;;8.70;92.00;;;;;;5050257;28;20132;-65
2024/03/01 07:06:47;;;;;;;2.55;1.50;;;8.80;92.00;;;;;;5048677;28;20112;-66
2024/03/01 07:09:12;;;;;;;1.70;1.33;;;8.90;92.00;;;;;;5044004;28;21053;-66
2024/03/01 07:11:38;;;;;;;2.20;1.60;;;8.80;92.00;;;;;;5048747;28;20094;-67
2024/03/01 07:14:03;;;;;;;1.52;1.23;;;8.80;92.00;;;;;;5049515;28;20043;-66
2024/03/01 07:16:29;;;;;;;2.28;1.45;;;8.80;91.90;;;;;;5047274;28;20043;-65
2024/03/01 07:18:55;;;;;;;1.40;1.30;;;8.80;91.90;;;;;;5049854;28;20033;-69
2024/03/01 07:21:20;;;;;;;2.30;1.50;;;8.80;92.00;;;;;;5046652;28;20025;-66
2024/03/01 07:23:46;;;;;;;2.53;1.50;;;8.80;92.00;;;;;;5048610;28;20025;-66
2024/03/01 07:26:11;;;;;;;2.08;1.40;;;8.70;91.90;;;;;;5048611;28;20021;-66
2024/03/01 07:28:37;;;;;;;1.23;1.13;;;8.70;92.00;;;;;;5048925;28;20025;-67
2024/03/01 07:31:03;;;;;;;1.90;1.50;;;8.70;92.00;;;;;;5048720;28;20425;-66
2024/03/01 07:33:30;;;;;;;2.15;1.20;;;8.70;91.90;;;;;;5049382;28;20020;-66
2024/03/01 07:35:56;;;;;;;2.38;1.88;;;8.60;91.90;;;;;;5049241;28;20140;-66
2024/03/01 07:38:21;;;;;;;2.40;1.33;;;8.50;92.00;;;;;;5047431;28;20107;-66
2024/03/01 07:40:47;;;;;;;2.70;1.60;;;8.50;92.10;;;;;;5048909;28;20376;-66
2024/03/01 07:43:12;;;;;;;1.50;1.30;;;8.50;92.10;;;;;;5049873;28;20051;-65
2024/03/01 07:45:38;;;;;;;2.63;1.88;;;8.60;92.20;;;;;;5048830;28;20122;-65
2024/03/01 07:48:05;;;;;;;2.78;1.90;;;8.60;92.10;;;;;;5047523;28;20029;-65
2024/03/01 07:50:31;;;;;;;1.80;1.60;;;8.50;92.00;;;;;;5049059;28;20074;-66
2024/03/01 07:52:58;;;;;;;2.53;1.80;;;8.50;92.10;;;;;;5048229;28;20041;-65
2024/03/01 07:55:24;;;;;;;3.22;2.20;;;8.60;92.10;;;;;;5048368;28;20036;-65
2024/03/01 07:57:49;;;;;;;2.78;1.65;;;8.50;92.10;;;;;;5047103;28;20021;-65
2024/03/01 08:00:16;;;;;;;4.03;2.05;;;8.60;92.10;;;;;;5049977;28;20039;-65
2024/03/01 08:02:41;;;;;;;3.40;2.45;;;8.60;92.10;;;;;;5049096;28;20644;-65
2024/03/01 08:05:09;;;;;;;2.55;1.90;;;8.60;92.10;;;;;;5048511;28;20021;-65
2024/03/01 08:07:34;;;;;;;4.50;2.67;;;8.60;92.10;;;;;;5045387;28;20538;-65
2024/03/01 08:10:00;;;;;;;5.20;2.88;;;8.60;92.00;;;;;;5047933;28;20502;-65
2024/03/01 08:12:27;;;;;;;3.53;2.53;;;8.60;91.90;;;;;;5048246;28;20133;-64
2024/03/01 08:14:53;;;;;;;4.28;2.40;;;8.60;91.90;;;;;;5048257;28;20024;-66
2024/03/01 08:17:19;;;;;;;2.30;2.00;;;8.70;91.90;;;;;;5044089;28;20463;-66
2024/03/01 08:19:46;;;;;;;2.42;1.85;;;8.80;91.80;;;;;;5045601;28;20056;-65
2024/03/01 08:22:19;;;;;;;3.13;1.90;;;8.80;91.70;;;;;;5047631;28;20605;-66
2024/03/01 08:24:46;;;;;;;15.90;3.58;;;8.90;91.60;;;;;;5046865;28;20061;-66
2024/03/01 08:27:24;;;;;;;4.15;2.55;;;8.80;91.40;;;;;;5047805;28;20021;-67
2024/03/01 08:29:51;;;;;;;6.00;3.50;;;8.80;91.40;;;;;;5048148;28;20156;-66
2024/03/01 08:32:45;;;;;;;5.65;3.50;;;8.80;91.40;;;;;;5049515;28;20027;-66
2024/03/01 08:35:16;;;;;;;5.40;3.53;;;8.80;91.30;;;;;;5048784;28;20028;-66
2024/03/01 08:37:42;;;;;;;5.53;3.58;;;8.70;91.30;;;;;;5044936;28;20025;-67
2024/03/01 08:40:33;;;;;;;7.55;4.35;;;8.80;91.40;;;;;;5044765;28;20381;-66
2024/03/01 08:42:58;;;;;;;5.20;3.38;;;8.80;91.30;;;;;;5046968;28;20032;-67
2024/03/01 08:45:41;;;;;;;5.38;3.53;;;8.80;91.20;;;;;;5048645;28;20086;-66
2024/03/01 08:48:16;;;;;;;5.43;3.40;;;8.80;91.20;;;;;;5047218;28;20013;-67
2024/03/01 08:50:50;;;;;;;6.05;4.05;;;8.90;91.20;;;;;;5047212;28;20021;-66
2024/03/01 08:53:42;;;;;;;5.60;3.72;;;8.90;91.10;;;;;;5049642;28;20471;-65
2024/03/01 08:56:20;;;;;;;7.68;4.60;;;8.90;91.10;;;;;;5047655;28;20052;-65
2024/03/01 08:58:46;;;;;;;6.88;4.20;;;9.00;91.00;;;;;;5048217;28;20090;-66
2024/03/01 09:01:39;;;;;;;8.93;4.78;;;9.00;90.90;;;;;;5048969;28;20491;-67
2024/03/01 09:04:18;;;;;;;10.07;5.38;;;9.10;90.80;;;;;;5041403;28;20580;-67
2024/03/01 09:06:48;;;;;;;9.10;5.45;;;9.00;90.70;;;;;;5044656;28;20040;-67
2024/03/01 09:09:21;;;;;;;8.02;5.10;;;9.00;90.70;;;;;;5044123;28;20032;-67
2024/03/01 09:11:47;;;;;;;6.03;4.10;;;9.00;90.60;;;;;;5044921;28;20519;-67
2024/03/01 09:14:38;;;;;;;7.57;4.90;;;9.00;90.60;;;;;;5048500;28;20079;-68
2024/03/01 09:17:05;;;;;;;8.82;5.38;;;8.90;90.40;;;;;;5046277;28;20056;-66
2024/03/01 09:19:39;;;;;;;9.07;5.88;;;8.90;90.40;;;;;;5049115;28;20032;-66
2024/03/01 09:22:05;;;;;;;9.38;6.05;;;8.80;90.20;;;;;;5046765;28;20619;-67
2024/03/01 09:24:36;;;;;;;7.47;5.10;;;8.80;90.20;;;;;;5048796;28;20124;-66
2024/03/01 09:27:16;;;;;;;8.10;4.80;;;8.90;90.60;;;;;;5048099;28;20523;-66
2024/03/01 09:29:44;;;;;;;9.00;5.05;;;9.00;90.30;;;;;;5044507;28;20031;-66
2024/03/01 09:32:10;;;;;;;6.60;4.90;;;9.10;90.10;;;;;;5042734;28;20029;-67
2024/03/01 09:34:38;;;;;;;10.52;6.32;;;9.10;89.90;;;;;;5039219;28;20030;-65
2024/03/01 09:37:08;;;;;;;9.77;5.75;;;9.20;89.50;;;;;;5043195;28;20342;-65
2024/03/01 09:39:34;;;;;;;6.57;4.32;;;9.20;89.20;;;;;;5047457;28;20037;-66
2024/03/01 09:42:06;;;;;;;7.05;4.10;;;9.20;89.30;;;;;;5048119;28;20438;-66
2024/03/01 09:44:42;;;;;;;6.15;3.78;;;9.40;89.30;;;;;;5044474;28;20102;-67
2024/03/01 09:47:45;;;;;;;8.82;5.75;;;9.50;89.30;;;;;;5043443;28;20107;-68
2024/03/01 09:50:36;;;;;;;8.65;4.72;;;9.50;88.40;;;;;;5043895;28;20053;-67
2024/03/01 09:53:19;;;;;;;7.22;4.88;;;9.50;87.90;;;;;;5043858;28;20029;-67
2024/03/01 09:56:07;;;;;;;6.88;4.30;;;9.60;87.90;;;;;;5042775;28;20162;-67
2024/03/01 09:58:48;;;;;;;7.43;4.40;;;9.50;87.00;;;;;;5046143;28;20040;-66
2024/03/01 10:01:18;;;;;;;6.53;4.00;;;9.60;87.50;;;;;;5037169;28;20040;-66
2024/03/01 10:04:02;;;;;;;7.38;4.40;;;9.60;87.10;;;;;;5046173;28;20075;-66
2024/03/01 10:07:00;;;;;;;6.47;4.00;;;9.70;87.00;;;;;;5045922;28;20104;-64
2024/03/01 10:09:42;;;;;;;7.55;4.32;;;9.60;86.20;;;;;;5039116;28;20083;-66
2024/03/01 10:12:24;;;;;;;6.22;3.85;;;9.60;86.30;;;;;;5047044;28;20040;-65
2024/03/01 10:14:59;;;;;;;;;;;9.60;86.50;;;;;;5043566;28;20028;-65
2024/03/01 10:17:50;;;;;;;5.65;3.38;;;9.60;85.90;;;;;;5043351;28;19974;-67
2024/03/01 10:20:27;;;;;;;6.80;3.80;;;9.60;85.40;;;;;;5045052;28;20037;-65
2024/03/01 10:23:15;;;;;;;5.97;2.83;;;9.60;85.40;;;;;;5042643;28;20032;-67
2024/03/01 10:25:52;;;;;;;5.78;3.13;;;9.70;85.40;;;;;;5041117;28;20462;-66
2024/03/01 10:28:37;;;;;;;5.60;2.63;;;9.80;85.20;;;;;;5051996;28;20100;-67
2024/03/01 10:31:26;;;;;;;5.63;2.83;;;10.00;84.80;;;;;;5045624;28;20029;-64
2024/03/01 10:33:53;;;;;;;6.03;2.80;;;10.00;84.20;;;;;;5046194;28;20036;-66
2024/03/01 10:36:34;;;;;;;5.93;2.80;;;10.10;84.60;;;;;;5044361;28;20100;-65
2024/03/01 10:39:08;;;;;;;4.68;2.50;;;10.10;83.90;;;;;;5041632;28;20514;-65
2024/03/01 10:41:47;;;;;;;6.25;2.55;;;10.20;83.70;;;;;;5047345;28;20031;-65
2024/03/01 10:44:31;;;;;;;6.97;2.97;;;10.30;83.60;;;;;;5040514;28;20021;-65
2024/03/01 10:47:14;;;;;;;4.00;2.10;;;10.40;82.90;;;;;;5044720;28;20056;-65
2024/03/01 10:50:12;;;;;;;2.83;1.85;;;10.40;83.10;;;;;;5045348;28;20044;-64
2024/03/01 10:52:42;;;;;;;4.90;2.50;;;10.60;82.70;;;;;;5040656;28;20033;-67
2024/03/01 10:55:36;;;;;;;5.03;2.90;;;10.60;82.10;;;;;;5047091;28;20068;-64
2024/03/01 10:58:24;;;;;;;6.68;2.85;;;10.60;81.10;;;;;;5042913;28;20120;-64
2024/03/01 11:00:57;;;;;;;6.47;3.03;;;10.60;80.30;;;;;;5042200;28;20039;-66
2024/03/01 11:03:30;;;;;;;6.38;2.75;;;10.60;79.50;;;;;;5043887;28;20486;-65
2024/03/01 11:06:18;;;;;;;5.00;2.90;;;10.60;79.70;;;;;;5041414;28;20033;-67
2024/03/01 11:09:16;;;;;;;4.63;2.70;;;10.60;79.50;;;;;;5045419;28;20388;-65
2024/03/01 11:12:03;;;;;;;5.30;2.70;;;10.70;79.10;;;;;;5046894;28;20032;-67
2024/03/01 11:14:32;;;;;;;5.10;3.00;;;10.70;78.80;;;;;;5047644;28;20056;-65
2024/03/01 11:17:00;;;;;;;4.75;2.47;;;10.70;78.30;;;;;;5047756;28;20033;-66
2024/03/01 11:19:29;;;;;;;5.03;2.40;;;10.70;78.60;;;;;;5046919;28;20033;-66
2024/03/01 11:22:10;;;;;;;3.72;2.10;;;10.80;78.20;;;;;;5048147;28;20021;-68
2024/03/01 11:24:43;;;;;;;4.75;2.30;;;10.80;78.30;;;;;;5047815;28;20025;-67
2024/03/01 11:27:13;;;;;;;4.28;2.13;;;10.80;77.90;;;;;;5045555;28;20036;-66
2024/03/01 11:29:53;;;;;;;6.43;2.30;;;10.70;78.40;;;;;;5046432;28;20029;-65
2024/03/01 11:32:23;;;;;;;3.92;2.15;;;10.90;78.50;;;;;;5044373;28;20090;-66
2024/03/01 11:35:26;;;;;;;2.35;1.85;;;10.90;78.50;;;;;;5046522;28;20021;-65
2024/03/01 11:38:02;;;;;;;4.40;2.85;;;10.90;78.00;;;;;;5049554;28;20029;-66
2024/03/01 11:41:01;;;;;;;4.72;2.40;;;10.90;77.00;;;;;;5049463;28;20029;-66
2024/03/01 11:43:52;;;;;;;3.92;2.25;;;10.90;77.70;;;;;;5043551;28;20095;-65
2024/03/01 11:46:34;;;;;;;2.50;1.70;;;10.90;77.60;;;;;;5045140;28;20029;-67
2024/03/01 11:49:08;;;;;;;4.05;2.30;;;11.00;77.90;;;;;;5048213;28;20275;-65
2024/03/01 11:51:49;;;;;;;2.83;1.90;;;11.00;76.90;;;;;;5048509;28;20025;-66
2024/03/01 11:54:33;;;;;;;4.15;3.28;;;11.10;76.80;;;;;;5046198;28;20037;-65
2024/03/01 11:57:14;;;;;;;3.83;1.80;;;11.10;76.00;;;;;;5048668;28;20501;-65
2024/03/01 12:00:02;;;;;;;2.15;1.60;;;11.20;75.80;;;;;;5049282;28;20056;-66
2024/03/01 12:02:49;;;;;;;3.90;1.80;;;11.20;75.20;;;;;;5042068;28;20036;-65
2024/03/01 12:05:37;;;;;;;4.35;1.80;;;11.30;76.10;;;;;;5050467;28;20068;-66
2024/03/01 12:08:11;;;;;;;2.05;1.50;;;11.50;75.40;;;;;;5048320;28;20017;-66
2024/03/01 12:10:39;;;;;;;3.97;1.50;;;11.40;74.70;;;;;;5048436;28;20029;-67
2024/03/01 12:13:09;;;;;;;2.35;1.40;;;11.40;75.10;;;;;;5049387;28;20141;-67
2024/03/01 12:16:00;;;;;;;2.65;1.40;;;11.50;75.00;;;;;;5047499;28;20083;-66
2024/03/01 12:18:51;;;;;;;2.80;1.40;;;11.50;74.80;;;;;;5044768;28;20044;-65
2024/03/01 12:21:39;;;;;;;3.65;1.60;;;11.60;74.70;;;;;;5047947;28;20029;-66
2024/03/01 12:24:16;;;;;;;3.22;1.90;;;11.70;74.20;;;;;;5048760;28;20078;-66
2024/03/01 12:26:56;;;;;;;3.58;1.75;;;11.80;73.20;;;;;;5049420;28;20103;-66
2024/03/01 12:29:43;;;;;;;6.63;1.80;;;11.70;72.80;;;;;;5036974;28;20544;-66
2024/03/01 12:32:19;;;;;;;3.90;1.50;;;11.80;71.60;;;;;;5043067;28;20127;-65
2024/03/01 12:35:03;;;;;;;2.78;1.27;;;11.90;71.90;;;;;;5049833;28;20040;-66
2024/03/01 12:37:51;;;;;;;3.75;1.27;;;12.00;71.20;;;;;;5042595;28;20021;-64
2024/03/01 12:40:18;;;;;;;1.00;0.85;;;12.00;71.90;;;;;;5049680;28;20502;-65
2024/03/01 12:43:07;;;;;;;2.70;1.40;;;12.00;71.80;;;;;;5048451;28;20064;-66
2024/03/01 12:46:00;;;;;;;2.42;1.15;;;11.90;71.30;;;;;;5038803;28;20495;-65
2024/03/01 12:49:04;;;;;;;3.33;1.50;;;11.70;70.80;;;;;;5046383;28;20028;-65
2024/03/01 12:51:39;;;;;;;1.42;1.10;;;11.60;71.40;;;;;;5048285;28;20058;-66
2024/03/01 12:54:07;;;;;;;1.50;1.00;;;11.60;71.20;;;;;;5047638;28;20070;-65
2024/03/01 12:56:49;;;;;;;4.43;1.05;;;11.60;71.30;;;;;;5047879;28;20025;-65
2024/03/01 12:59:31;;;;;;;2.33;1.17;;;11.60;71.40;;;;;;5050492;28;20043;-66
2024/03/01 13:02:40;;;;;;;1.33;1.00;;;11.60;71.40;;;;;;5048431;28;20029;-67
2024/03/01 13:05:25;;;;;;;1.35;1.20;;;11.60;71.80;;;;;;5045445;28;20131;-66
2024/03/01 13:07:57;;;;;;;1.05;0.93;;;11.60;70.70;;;;;;5047532;28;20047;-66
2024/03/01 13:10:24;;;;;;;1.23;0.82;;;11.60;71.50;;;;;;5043951;28;20020;-66
2024/03/01 13:12:59;;;;;;;3.72;1.30;;;11.60;71.60;;;;;;5049037;28;20039;-66
2024/03/01 13:15:41;;;;;;;0.70;0.70;;;11.60;71.70;;;;;;5043389;28;20063;-65